sensor_id;sensor_type;location;lat;lon;timestamp;P1;durP1;ratioP1;P2;durP2;ratioP2
13331;SDS011;6735;51.456;12.626;2023-04-16T00:01:58;46.27;;;32.70;;
13331;SDS011;6735;51.456;12.626;2023-04-16T00:04:23;46.30;;;33.83;;
13331;SDS011;6735;51.456;12.626;2023-04-16T00:06:49;62.07;;;35.67;;
13331;SDS011;6735;51.456;12.626;2023-04-16T00:09:14;46.70;;;33.90;;
13331;SDS011;6735;51.456;12.626;2023-04-16T00:11:40;57.73;;;35.03;;
13331;SDS011;6735;51.456;12.626;2023-04-16T00:14:05;54.03;;;34.87;;
13331;SDS011;6735;51.456;12.626;2023-04-16T00:16:31;41.23;;;31.87;;
13331;SDS011;6735;51.456;12.626;2023-04-16T00:18:57;56.50;;;34.97;;
13331;SDS011;6735;51.456;12.626;2023-04-16T00:21:22;46.43;;;33.30;;
13331;SDS011;6735;51.456;12.626;2023-04-16T00:23:47;49.00;;;32.87;;
13331;SDS011;6735;51.456;12.626;2023-04-16T00:26:13;67.67;;;35.77;;
13331;SDS011;6735;51.456;12.626;2023-04-16T00:28:40;42.57;;;31.43;;
13331;SDS011;6735;51.456;12.626;2023-04-16T00:31:05;42.30;;;30.63;;
13331;SDS011;6735;51.456;12.626;2023-04-16T00:33:31;43.03;;;31.87;;
13331;SDS011;6735;51.456;12.626;2023-04-16T00:35:56;43.50;;;33.13;;
13331;SDS011;6735;51.456;12.626;2023-04-16T00:38:22;39.13;;;29.17;;
13331;SDS011;6735;51.456;12.626;2023-04-16T00:40:47;60.00;;;35.87;;
13331;SDS011;6735;51.456;12.626;2023-04-16T00:43:22;54.20;;;34.37;;
13331;SDS011;6735;51.456;12.626;2023-04-16T00:45:49;53.93;;;35.17;;
13331;SDS011;6735;51.456;12.626;2023-04-16T00:48:15;46.17;;;33.43;;
13331;SDS011;6735;51.456;12.626;2023-04-16T00:50:40;52.30;;;34.50;;
13331;SDS011;6735;51.456;12.626;2023-04-16T00:53:06;45.73;;;32.93;;
13331;SDS011;6735;51.456;12.626;2023-04-16T00:55:32;50.13;;;34.27;;
13331;SDS011;6735;51.456;12.626;2023-04-16T00:57:58;61.37;;;37.07;;
13331;SDS011;6735;51.456;12.626;2023-04-16T01:00:23;54.37;;;36.27;;
13331;SDS011;6735;51.456;12.626;2023-04-16T01:02:50;51.13;;;36.47;;
13331;SDS011;6735;51.456;12.626;2023-04-16T01:05:16;50.67;;;35.83;;
13331;SDS011;6735;51.456;12.626;2023-04-16T01:07:41;61.43;;;36.80;;
13331;SDS011;6735;51.456;12.626;2023-04-16T01:10:07;46.80;;;35.10;;
13331;SDS011;6735;51.456;12.626;2023-04-16T01:12:32;55.50;;;35.50;;
13331;SDS011;6735;51.456;12.626;2023-04-16T01:14:58;55.93;;;34.70;;
13331;SDS011;6735;51.456;12.626;2023-04-16T01:17:23;46.73;;;33.63;;
13331;SDS011;6735;51.456;12.626;2023-04-16T01:19:49;52.53;;;32.67;;
13331;SDS011;6735;51.456;12.626;2023-04-16T01:22:15;40.53;;;30.33;;
13331;SDS011;6735;51.456;12.626;2023-04-16T01:24:41;37.33;;;28.90;;
13331;SDS011;6735;51.456;12.626;2023-04-16T01:27:06;44.80;;;29.63;;
13331;SDS011;6735;51.456;12.626;2023-04-16T01:29:32;43.17;;;29.37;;
13331;SDS011;6735;51.456;12.626;2023-04-16T01:31:57;39.90;;;29.17;;
13331;SDS011;6735;51.456;12.626;2023-04-16T01:34:23;35.37;;;28.27;;
13331;SDS011;6735;51.456;12.626;2023-04-16T01:36:48;40.47;;;30.07;;
13331;SDS011;6735;51.456;12.626;2023-04-16T01:39:14;35.37;;;27.43;;
13331;SDS011;6735;51.456;12.626;2023-04-16T01:41:40;35.27;;;26.60;;
13331;SDS011;6735;51.456;12.626;2023-04-16T01:44:05;36.70;;;27.70;;
13331;SDS011;6735;51.456;12.626;2023-04-16T01:46:32;33.70;;;27.33;;
13331;SDS011;6735;51.456;12.626;2023-04-16T01:48:59;34.00;;;27.17;;
13331;SDS011;6735;51.456;12.626;2023-04-16T01:51:26;36.90;;;26.40;;
13331;SDS011;6735;51.456;12.626;2023-04-16T01:53:52;30.70;;;26.07;;
13331;SDS011;6735;51.456;12.626;2023-04-16T01:56:18;34.47;;;27.13;;
13331;SDS011;6735;51.456;12.626;2023-04-16T01:58:43;34.77;;;26.53;;
13331;SDS011;6735;51.456;12.626;2023-04-16T02:01:11;46.23;;;29.57;;
13331;SDS011;6735;51.456;12.626;2023-04-16T02:03:37;45.50;;;30.50;;
13331;SDS011;6735;51.456;12.626;2023-04-16T02:06:03;47.90;;;30.50;;
13331;SDS011;6735;51.456;12.626;2023-04-16T02:08:28;51.30;;;30.67;;
13331;SDS011;6735;51.456;12.626;2023-04-16T02:10:54;46.53;;;30.37;;
13331;SDS011;6735;51.456;12.626;2023-04-16T02:13:20;41.27;;;29.20;;
13331;SDS011;6735;51.456;12.626;2023-04-16T02:15:47;41.90;;;28.63;;
13331;SDS011;6735;51.456;12.626;2023-04-16T02:18:14;40.53;;;28.67;;
13331;SDS011;6735;51.456;12.626;2023-04-16T02:20:40;37.20;;;29.17;;
13331;SDS011;6735;51.456;12.626;2023-04-16T02:23:10;39.13;;;29.17;;
13331;SDS011;6735;51.456;12.626;2023-04-16T02:25:41;32.60;;;26.97;;
13331;SDS011;6735;51.456;12.626;2023-04-16T02:28:07;37.87;;;27.90;;
13331;SDS011;6735;51.456;12.626;2023-04-16T02:30:36;30.20;;;26.67;;
13331;SDS011;6735;51.456;12.626;2023-04-16T02:33:02;35.03;;;28.57;;
13331;SDS011;6735;51.456;12.626;2023-04-16T02:35:31;37.93;;;28.83;;
13331;SDS011;6735;51.456;12.626;2023-04-16T02:37:57;34.40;;;27.43;;
13331;SDS011;6735;51.456;12.626;2023-04-16T02:40:23;30.30;;;27.00;;
13331;SDS011;6735;51.456;12.626;2023-04-16T02:42:49;36.17;;;29.63;;
13331;SDS011;6735;51.456;12.626;2023-04-16T02:45:14;32.97;;;28.90;;
13331;SDS011;6735;51.456;12.626;2023-04-16T02:47:40;34.37;;;28.53;;
13331;SDS011;6735;51.456;12.626;2023-04-16T02:50:05;33.63;;;28.67;;
13331;SDS011;6735;51.456;12.626;2023-04-16T02:52:31;34.50;;;29.20;;
13331;SDS011;6735;51.456;12.626;2023-04-16T02:54:57;31.90;;;28.13;;
13331;SDS011;6735;51.456;12.626;2023-04-16T02:57:23;35.70;;;28.50;;
13331;SDS011;6735;51.456;12.626;2023-04-16T02:59:49;39.43;;;30.30;;
13331;SDS011;6735;51.456;12.626;2023-04-16T03:02:14;33.70;;;28.70;;
13331;SDS011;6735;51.456;12.626;2023-04-16T03:04:40;37.27;;;30.30;;
13331;SDS011;6735;51.456;12.626;2023-04-16T03:07:06;44.40;;;30.93;;
13331;SDS011;6735;51.456;12.626;2023-04-16T03:09:33;40.37;;;30.83;;
13331;SDS011;6735;51.456;12.626;2023-04-16T03:11:58;39.10;;;30.43;;
13331;SDS011;6735;51.456;12.626;2023-04-16T03:14:25;32.30;;;28.90;;
13331;SDS011;6735;51.456;12.626;2023-04-16T03:16:51;34.80;;;30.23;;
13331;SDS011;6735;51.456;12.626;2023-04-16T03:19:16;33.67;;;29.27;;
13331;SDS011;6735;51.456;12.626;2023-04-16T03:21:42;39.87;;;31.53;;
13331;SDS011;6735;51.456;12.626;2023-04-16T03:24:07;40.00;;;31.10;;
13331;SDS011;6735;51.456;12.626;2023-04-16T03:26:33;33.53;;;29.43;;
13331;SDS011;6735;51.456;12.626;2023-04-16T03:28:58;33.97;;;28.93;;
13331;SDS011;6735;51.456;12.626;2023-04-16T03:31:26;50.00;;;31.60;;
13331;SDS011;6735;51.456;12.626;2023-04-16T03:33:51;41.57;;;30.77;;
13331;SDS011;6735;51.456;12.626;2023-04-16T03:36:17;39.27;;;31.33;;
13331;SDS011;6735;51.456;12.626;2023-04-16T03:38:43;38.83;;;30.87;;
13331;SDS011;6735;51.456;12.626;2023-04-16T03:41:08;39.87;;;31.03;;
13331;SDS011;6735;51.456;12.626;2023-04-16T03:43:33;40.83;;;32.70;;
13331;SDS011;6735;51.456;12.626;2023-04-16T03:45:59;33.27;;;29.33;;
13331;SDS011;6735;51.456;12.626;2023-04-16T03:48:25;36.10;;;30.17;;
13331;SDS011;6735;51.456;12.626;2023-04-16T03:50:50;41.30;;;31.40;;
13331;SDS011;6735;51.456;12.626;2023-04-16T03:53:15;37.40;;;30.47;;
13331;SDS011;6735;51.456;12.626;2023-04-16T03:55:41;46.87;;;33.07;;
13331;SDS011;6735;51.456;12.626;2023-04-16T03:58:07;40.17;;;31.00;;
13331;SDS011;6735;51.456;12.626;2023-04-16T04:00:32;44.20;;;31.17;;
13331;SDS011;6735;51.456;12.626;2023-04-16T04:02:58;40.67;;;31.10;;
13331;SDS011;6735;51.456;12.626;2023-04-16T04:05:23;46.27;;;31.77;;
13331;SDS011;6735;51.456;12.626;2023-04-16T04:07:49;37.30;;;30.03;;
13331;SDS011;6735;51.456;12.626;2023-04-16T04:10:14;38.67;;;31.30;;
13331;SDS011;6735;51.456;12.626;2023-04-16T04:12:40;36.97;;;30.10;;
13331;SDS011;6735;51.456;12.626;2023-04-16T04:15:06;35.83;;;31.23;;
13331;SDS011;6735;51.456;12.626;2023-04-16T04:17:32;36.10;;;30.77;;
13331;SDS011;6735;51.456;12.626;2023-04-16T04:19:57;39.37;;;30.57;;
13331;SDS011;6735;51.456;12.626;2023-04-16T04:22:23;41.50;;;30.93;;
13331;SDS011;6735;51.456;12.626;2023-04-16T04:24:48;46.10;;;32.17;;
13331;SDS011;6735;51.456;12.626;2023-04-16T04:27:14;39.23;;;31.40;;
13331;SDS011;6735;51.456;12.626;2023-04-16T04:29:39;42.60;;;30.97;;
13331;SDS011;6735;51.456;12.626;2023-04-16T04:32:05;41.13;;;30.80;;
13331;SDS011;6735;51.456;12.626;2023-04-16T04:34:30;59.37;;;33.03;;
13331;SDS011;6735;51.456;12.626;2023-04-16T04:36:56;58.87;;;33.17;;
13331;SDS011;6735;51.456;12.626;2023-04-16T04:39:22;53.37;;;32.90;;
13331;SDS011;6735;51.456;12.626;2023-04-16T04:41:47;35.37;;;28.80;;
13331;SDS011;6735;51.456;12.626;2023-04-16T04:44:13;36.47;;;28.97;;
13331;SDS011;6735;51.456;12.626;2023-04-16T04:46:39;43.57;;;30.37;;
13331;SDS011;6735;51.456;12.626;2023-04-16T04:49:04;46.03;;;31.33;;
13331;SDS011;6735;51.456;12.626;2023-04-16T04:51:30;53.43;;;32.43;;
13331;SDS011;6735;51.456;12.626;2023-04-16T04:53:56;45.07;;;31.13;;
13331;SDS011;6735;51.456;12.626;2023-04-16T04:56:21;42.10;;;30.23;;
13331;SDS011;6735;51.456;12.626;2023-04-16T04:58:48;54.53;;;31.70;;
13331;SDS011;6735;51.456;12.626;2023-04-16T05:01:14;46.77;;;31.47;;
13331;SDS011;6735;51.456;12.626;2023-04-16T05:03:40;38.97;;;30.17;;
13331;SDS011;6735;51.456;12.626;2023-04-16T05:06:05;37.40;;;29.83;;
13331;SDS011;6735;51.456;12.626;2023-04-16T05:08:31;50.87;;;31.73;;
13331;SDS011;6735;51.456;12.626;2023-04-16T05:10:57;41.07;;;29.87;;
13331;SDS011;6735;51.456;12.626;2023-04-16T05:13:22;46.13;;;31.13;;
13331;SDS011;6735;51.456;12.626;2023-04-16T05:15:48;54.30;;;32.47;;
13331;SDS011;6735;51.456;12.626;2023-04-16T05:18:13;52.13;;;31.23;;
13331;SDS011;6735;51.456;12.626;2023-04-16T05:20:39;60.97;;;34.03;;
13331;SDS011;6735;51.456;12.626;2023-04-16T05:23:05;43.83;;;31.13;;
13331;SDS011;6735;51.456;12.626;2023-04-16T05:25:30;52.70;;;33.57;;
13331;SDS011;6735;51.456;12.626;2023-04-16T05:27:56;51.10;;;33.00;;
13331;SDS011;6735;51.456;12.626;2023-04-16T05:30:21;39.00;;;29.73;;
13331;SDS011;6735;51.456;12.626;2023-04-16T05:32:46;44.60;;;31.97;;
13331;SDS011;6735;51.456;12.626;2023-04-16T05:35:12;41.27;;;30.97;;
13331;SDS011;6735;51.456;12.626;2023-04-16T05:37:37;47.20;;;31.73;;
13331;SDS011;6735;51.456;12.626;2023-04-16T05:40:03;34.83;;;29.00;;
13331;SDS011;6735;51.456;12.626;2023-04-16T05:42:29;41.77;;;28.77;;
13331;SDS011;6735;51.456;12.626;2023-04-16T05:44:54;38.67;;;28.43;;
13331;SDS011;6735;51.456;12.626;2023-04-16T05:47:20;42.63;;;28.30;;
13331;SDS011;6735;51.456;12.626;2023-04-16T05:49:45;42.40;;;29.00;;
13331;SDS011;6735;51.456;12.626;2023-04-16T05:52:11;38.40;;;28.10;;
13331;SDS011;6735;51.456;12.626;2023-04-16T05:54:36;35.53;;;26.40;;
13331;SDS011;6735;51.456;12.626;2023-04-16T05:57:02;39.60;;;26.53;;
13331;SDS011;6735;51.456;12.626;2023-04-16T05:59:27;32.43;;;23.30;;
13331;SDS011;6735;51.456;12.626;2023-04-16T06:01:54;21.93;;;17.63;;
13331;SDS011;6735;51.456;12.626;2023-04-16T06:04:20;19.57;;;16.00;;
13331;SDS011;6735;51.456;12.626;2023-04-16T06:06:46;21.83;;;17.10;;
13331;SDS011;6735;51.456;12.626;2023-04-16T06:09:11;17.57;;;14.93;;
13331;SDS011;6735;51.456;12.626;2023-04-16T06:11:37;18.97;;;14.93;;
13331;SDS011;6735;51.456;12.626;2023-04-16T06:14:02;16.97;;;14.70;;
13331;SDS011;6735;51.456;12.626;2023-04-16T06:16:28;16.17;;;13.13;;
13331;SDS011;6735;51.456;12.626;2023-04-16T06:18:53;14.13;;;12.63;;
13331;SDS011;6735;51.456;12.626;2023-04-16T06:21:18;16.37;;;14.67;;
13331;SDS011;6735;51.456;12.626;2023-04-16T06:23:44;16.07;;;14.27;;
13331;SDS011;6735;51.456;12.626;2023-04-16T06:26:09;17.17;;;15.33;;
13331;SDS011;6735;51.456;12.626;2023-04-16T06:28:35;16.53;;;14.67;;
13331;SDS011;6735;51.456;12.626;2023-04-16T06:31:00;17.83;;;15.20;;
13331;SDS011;6735;51.456;12.626;2023-04-16T06:33:26;16.80;;;15.10;;
13331;SDS011;6735;51.456;12.626;2023-04-16T06:35:52;15.80;;;14.20;;
13331;SDS011;6735;51.456;12.626;2023-04-16T06:38:17;16.20;;;14.50;;
13331;SDS011;6735;51.456;12.626;2023-04-16T06:40:43;14.97;;;13.47;;
13331;SDS011;6735;51.456;12.626;2023-04-16T06:43:08;17.57;;;10.47;;
13331;SDS011;6735;51.456;12.626;2023-04-16T06:45:34;13.67;;;11.43;;
13331;SDS011;6735;51.456;12.626;2023-04-16T06:47:59;15.70;;;12.50;;
13331;SDS011;6735;51.456;12.626;2023-04-16T06:50:25;14.50;;;12.03;;
13331;SDS011;6735;51.456;12.626;2023-04-16T06:52:52;14.67;;;13.27;;
13331;SDS011;6735;51.456;12.626;2023-04-16T06:55:18;12.53;;;11.33;;
13331;SDS011;6735;51.456;12.626;2023-04-16T06:57:43;15.13;;;13.07;;
13331;SDS011;6735;51.456;12.626;2023-04-16T07:00:09;14.10;;;12.70;;
13331;SDS011;6735;51.456;12.626;2023-04-16T07:02:35;13.30;;;12.10;;
13331;SDS011;6735;51.456;12.626;2023-04-16T07:05:01;13.93;;;12.63;;
13331;SDS011;6735;51.456;12.626;2023-04-16T07:07:26;13.93;;;12.67;;
13331;SDS011;6735;51.456;12.626;2023-04-16T07:09:52;13.37;;;12.07;;
13331;SDS011;6735;51.456;12.626;2023-04-16T07:12:18;13.43;;;12.17;;
13331;SDS011;6735;51.456;12.626;2023-04-16T07:14:44;13.47;;;12.10;;
13331;SDS011;6735;51.456;12.626;2023-04-16T07:17:10;13.90;;;12.50;;
13331;SDS011;6735;51.456;12.626;2023-04-16T07:19:36;12.90;;;11.70;;
13331;SDS011;6735;51.456;12.626;2023-04-16T07:22:01;13.67;;;12.27;;
13331;SDS011;6735;51.456;12.626;2023-04-16T07:24:27;13.50;;;12.10;;
13331;SDS011;6735;51.456;12.626;2023-04-16T07:26:53;12.30;;;11.03;;
13331;SDS011;6735;51.456;12.626;2023-04-16T07:29:18;12.43;;;11.23;;
13331;SDS011;6735;51.456;12.626;2023-04-16T07:31:44;13.63;;;9.67;;
13331;SDS011;6735;51.456;12.626;2023-04-16T07:34:10;10.90;;;9.90;;
13331;SDS011;6735;51.456;12.626;2023-04-16T07:36:35;9.70;;;8.80;;
13331;SDS011;6735;51.456;12.626;2023-04-16T07:39:01;11.40;;;10.20;;
13331;SDS011;6735;51.456;12.626;2023-04-16T07:41:28;11.43;;;10.40;;
13331;SDS011;6735;51.456;12.626;2023-04-16T07:43:54;10.90;;;9.80;;
13331;SDS011;6735;51.456;12.626;2023-04-16T07:46:19;11.67;;;10.47;;
13331;SDS011;6735;51.456;12.626;2023-04-16T07:48:45;11.80;;;10.70;;
13331;SDS011;6735;51.456;12.626;2023-04-16T07:51:11;12.53;;;11.33;;
13331;SDS011;6735;51.456;12.626;2023-04-16T07:53:37;11.63;;;10.60;;
13331;SDS011;6735;51.456;12.626;2023-04-16T07:56:02;10.73;;;9.77;;
13331;SDS011;6735;51.456;12.626;2023-04-16T07:58:28;9.43;;;8.63;;
13331;SDS011;6735;51.456;12.626;2023-04-16T08:00:53;9.87;;;9.07;;
13331;SDS011;6735;51.456;12.626;2023-04-16T08:03:19;9.53;;;8.63;;
13331;SDS011;6735;51.456;12.626;2023-04-16T08:05:44;9.50;;;8.70;;
13331;SDS011;6735;51.456;12.626;2023-04-16T08:08:10;9.00;;;8.27;;
13331;SDS011;6735;51.456;12.626;2023-04-16T08:10:35;9.13;;;8.33;;
13331;SDS011;6735;51.456;12.626;2023-04-16T08:13:01;8.90;;;8.10;;
13331;SDS011;6735;51.456;12.626;2023-04-16T08:15:26;8.43;;;7.73;;
13331;SDS011;6735;51.456;12.626;2023-04-16T08:17:52;8.83;;;7.87;;
13331;SDS011;6735;51.456;12.626;2023-04-16T08:20:17;8.10;;;7.50;;
13331;SDS011;6735;51.456;12.626;2023-04-16T08:22:43;7.63;;;6.90;;
13331;SDS011;6735;51.456;12.626;2023-04-16T08:25:09;7.40;;;6.80;;
13331;SDS011;6735;51.456;12.626;2023-04-16T08:27:35;7.27;;;6.47;;
13331;SDS011;6735;51.456;12.626;2023-04-16T08:30:01;6.80;;;6.23;;
13331;SDS011;6735;51.456;12.626;2023-04-16T08:32:26;8.23;;;6.37;;
13331;SDS011;6735;51.456;12.626;2023-04-16T08:34:52;6.53;;;5.80;;
13331;SDS011;6735;51.456;12.626;2023-04-16T08:37:17;9.20;;;6.13;;
13331;SDS011;6735;51.456;12.626;2023-04-16T08:39:43;7.20;;;6.60;;
13331;SDS011;6735;51.456;12.626;2023-04-16T08:42:12;7.80;;;7.03;;
13331;SDS011;6735;51.456;12.626;2023-04-16T08:44:47;7.60;;;7.00;;
13331;SDS011;6735;51.456;12.626;2023-04-16T08:47:13;7.70;;;7.10;;
13331;SDS011;6735;51.456;12.626;2023-04-16T08:49:50;8.53;;;6.70;;
13331;SDS011;6735;51.456;12.626;2023-04-16T08:52:20;7.80;;;7.00;;
13331;SDS011;6735;51.456;12.626;2023-04-16T08:57:29;7.90;;;7.20;;
13331;SDS011;6735;51.456;12.626;2023-04-16T09:00:08;7.00;;;6.40;;
13331;SDS011;6735;51.456;12.626;2023-04-16T09:02:35;10.77;;;7.60;;
13331;SDS011;6735;51.456;12.626;2023-04-16T09:05:01;6.93;;;6.23;;
13331;SDS011;6735;51.456;12.626;2023-04-16T09:07:29;7.93;;;7.10;;
13331;SDS011;6735;51.456;12.626;2023-04-16T09:09:58;8.77;;;6.83;;
13331;SDS011;6735;51.456;12.626;2023-04-16T09:12:24;7.87;;;7.07;;
13331;SDS011;6735;51.456;12.626;2023-04-16T09:14:49;9.50;;;8.57;;
13331;SDS011;6735;51.456;12.626;2023-04-16T09:17:15;10.63;;;9.63;;
13331;SDS011;6735;51.456;12.626;2023-04-16T09:19:44;11.30;;;10.20;;
13331;SDS011;6735;51.456;12.626;2023-04-16T09:22:10;11.37;;;10.17;;
13331;SDS011;6735;51.456;12.626;2023-04-16T09:24:36;11.40;;;10.30;;
13331;SDS011;6735;51.456;12.626;2023-04-16T09:27:02;10.57;;;9.67;;
13331;SDS011;6735;51.456;12.626;2023-04-16T09:29:35;9.40;;;8.50;;
13331;SDS011;6735;51.456;12.626;2023-04-16T09:32:02;9.20;;;8.00;;
13331;SDS011;6735;51.456;12.626;2023-04-16T09:34:28;8.30;;;7.50;;
13331;SDS011;6735;51.456;12.626;2023-04-16T09:37:15;9.13;;;8.33;;
13331;SDS011;6735;51.456;12.626;2023-04-16T09:39:41;8.70;;;8.00;;
13331;SDS011;6735;51.456;12.626;2023-04-16T09:42:08;9.40;;;8.60;;
13331;SDS011;6735;51.456;12.626;2023-04-16T09:44:34;11.13;;;10.20;;
13331;SDS011;6735;51.456;12.626;2023-04-16T09:47:05;10.80;;;9.80;;
13331;SDS011;6735;51.456;12.626;2023-04-16T09:49:34;10.17;;;9.30;;
13331;SDS011;6735;51.456;12.626;2023-04-16T09:52:15;10.20;;;9.37;;
13331;SDS011;6735;51.456;12.626;2023-04-16T09:54:47;11.10;;;10.03;;
13331;SDS011;6735;51.456;12.626;2023-04-16T09:57:14;9.80;;;9.00;;
13331;SDS011;6735;51.456;12.626;2023-04-16T09:59:47;9.93;;;9.13;;
13331;SDS011;6735;51.456;12.626;2023-04-16T10:02:16;9.80;;;9.00;;
13331;SDS011;6735;51.456;12.626;2023-04-16T10:04:48;10.53;;;9.63;;
13331;SDS011;6735;51.456;12.626;2023-04-16T10:07:15;11.30;;;10.20;;
13331;SDS011;6735;51.456;12.626;2023-04-16T10:09:41;10.77;;;9.77;;
13331;SDS011;6735;51.456;12.626;2023-04-16T10:12:06;9.30;;;8.60;;
13331;SDS011;6735;51.456;12.626;2023-04-16T10:14:32;9.80;;;9.00;;
13331;SDS011;6735;51.456;12.626;2023-04-16T10:16:59;9.93;;;9.03;;
13331;SDS011;6735;51.456;12.626;2023-04-16T10:19:25;10.00;;;9.10;;
13331;SDS011;6735;51.456;12.626;2023-04-16T10:21:52;10.37;;;9.47;;
13331;SDS011;6735;51.456;12.626;2023-04-16T10:24:18;9.30;;;8.50;;
13331;SDS011;6735;51.456;12.626;2023-04-16T10:26:44;9.93;;;9.03;;
13331;SDS011;6735;51.456;12.626;2023-04-16T10:29:11;9.07;;;8.37;;
13331;SDS011;6735;51.456;12.626;2023-04-16T10:31:37;8.80;;;8.00;;
13331;SDS011;6735;51.456;12.626;2023-04-16T10:34:04;8.00;;;7.40;;
13331;SDS011;6735;51.456;12.626;2023-04-16T10:36:34;7.93;;;7.33;;
13331;SDS011;6735;51.456;12.626;2023-04-16T10:39:01;9.47;;;8.60;;
13331;SDS011;6735;51.456;12.626;2023-04-16T10:41:27;8.27;;;7.67;;
13331;SDS011;6735;51.456;12.626;2023-04-16T10:43:54;7.20;;;6.70;;
13331;SDS011;6735;51.456;12.626;2023-04-16T10:46:33;7.23;;;6.63;;
13331;SDS011;6735;51.456;12.626;2023-04-16T10:49:26;7.27;;;6.73;;
13331;SDS011;6735;51.456;12.626;2023-04-16T10:51:56;7.00;;;6.50;;
13331;SDS011;6735;51.456;12.626;2023-04-16T10:54:24;7.30;;;6.63;;
13331;SDS011;6735;51.456;12.626;2023-04-16T10:56:57;6.90;;;6.30;;
13331;SDS011;6735;51.456;12.626;2023-04-16T10:59:24;7.00;;;6.50;;
13331;SDS011;6735;51.456;12.626;2023-04-16T11:01:55;7.40;;;6.83;;
13331;SDS011;6735;51.456;12.626;2023-04-16T11:09:45;8.87;;;8.07;;
13331;SDS011;6735;51.456;12.626;2023-04-16T11:12:12;7.83;;;7.13;;
13331;SDS011;6735;51.456;12.626;2023-04-16T11:14:39;7.53;;;6.93;;
13331;SDS011;6735;51.456;12.626;2023-04-16T11:17:05;8.87;;;8.17;;
13331;SDS011;6735;51.456;12.626;2023-04-16T11:19:31;8.00;;;7.40;;
13331;SDS011;6735;51.456;12.626;2023-04-16T11:21:57;7.37;;;6.67;;
13331;SDS011;6735;51.456;12.626;2023-04-16T11:24:23;8.23;;;7.63;;
13331;SDS011;6735;51.456;12.626;2023-04-16T11:26:52;8.03;;;7.40;;
13331;SDS011;6735;51.456;12.626;2023-04-16T11:29:18;8.70;;;8.00;;
13331;SDS011;6735;51.456;12.626;2023-04-16T11:31:51;8.60;;;7.70;;
13331;SDS011;6735;51.456;12.626;2023-04-16T11:34:17;8.77;;;8.07;;
13331;SDS011;6735;51.456;12.626;2023-04-16T11:36:44;7.90;;;7.30;;
13331;SDS011;6735;51.456;12.626;2023-04-16T11:39:10;7.87;;;7.27;;
13331;SDS011;6735;51.456;12.626;2023-04-16T11:41:45;7.70;;;7.10;;
13331;SDS011;6735;51.456;12.626;2023-04-16T11:46:48;8.57;;;7.97;;
13331;SDS011;6735;51.456;12.626;2023-04-16T11:49:14;8.47;;;7.77;;
13331;SDS011;6735;51.456;12.626;2023-04-16T11:51:42;7.80;;;7.20;;
13331;SDS011;6735;51.456;12.626;2023-04-16T11:54:16;8.70;;;8.00;;
13331;SDS011;6735;51.456;12.626;2023-04-16T11:56:46;7.53;;;6.93;;
13331;SDS011;6735;51.456;12.626;2023-04-16T11:59:16;7.77;;;7.17;;
13331;SDS011;6735;51.456;12.626;2023-04-16T12:01:47;7.20;;;6.67;;
13331;SDS011;6735;51.456;12.626;2023-04-16T12:04:14;7.40;;;6.87;;
13331;SDS011;6735;51.456;12.626;2023-04-16T12:07:03;7.03;;;6.53;;
13331;SDS011;6735;51.456;12.626;2023-04-16T12:09:29;6.10;;;5.60;;
13331;SDS011;6735;51.456;12.626;2023-04-16T12:11:55;6.20;;;5.70;;
13331;SDS011;6735;51.456;12.626;2023-04-16T12:14:21;7.20;;;6.60;;
13331;SDS011;6735;51.456;12.626;2023-04-16T12:16:47;6.43;;;5.93;;
13331;SDS011;6735;51.456;12.626;2023-04-16T12:19:12;6.80;;;6.20;;
13331;SDS011;6735;51.456;12.626;2023-04-16T12:21:42;6.47;;;5.97;;
13331;SDS011;6735;51.456;12.626;2023-04-16T12:24:10;6.07;;;5.67;;
13331;SDS011;6735;51.456;12.626;2023-04-16T12:26:42;6.50;;;6.10;;
13331;SDS011;6735;51.456;12.626;2023-04-16T12:29:19;6.27;;;5.77;;
13331;SDS011;6735;51.456;12.626;2023-04-16T12:31:49;5.40;;;5.07;;
13331;SDS011;6735;51.456;12.626;2023-04-16T12:34:16;4.97;;;4.67;;
13331;SDS011;6735;51.456;12.626;2023-04-16T12:36:43;5.00;;;4.60;;
13331;SDS011;6735;51.456;12.626;2023-04-16T12:39:09;4.97;;;4.67;;
13331;SDS011;6735;51.456;12.626;2023-04-16T12:41:36;5.47;;;5.07;;
13331;SDS011;6735;51.456;12.626;2023-04-16T12:44:03;5.40;;;5.00;;
13331;SDS011;6735;51.456;12.626;2023-04-16T12:46:33;5.40;;;5.00;;
13331;SDS011;6735;51.456;12.626;2023-04-16T12:49:00;5.40;;;5.00;;
13331;SDS011;6735;51.456;12.626;2023-04-16T12:51:25;5.97;;;5.47;;
13331;SDS011;6735;51.456;12.626;2023-04-16T12:53:51;5.37;;;4.97;;
13331;SDS011;6735;51.456;12.626;2023-04-16T12:56:16;5.63;;;5.23;;
13331;SDS011;6735;51.456;12.626;2023-04-16T12:58:42;5.50;;;5.10;;
13331;SDS011;6735;51.456;12.626;2023-04-16T13:01:07;7.57;;;6.97;;
13331;SDS011;6735;51.456;12.626;2023-04-16T13:03:33;7.00;;;6.40;;
13331;SDS011;6735;51.456;12.626;2023-04-16T13:06:01;5.63;;;5.23;;
13331;SDS011;6735;51.456;12.626;2023-04-16T13:08:27;6.80;;;6.30;;
13331;SDS011;6735;51.456;12.626;2023-04-16T13:10:53;6.43;;;5.97;;
13331;SDS011;6735;51.456;12.626;2023-04-16T13:13:18;7.73;;;7.03;;
13331;SDS011;6735;51.456;12.626;2023-04-16T13:15:44;7.50;;;6.90;;
13331;SDS011;6735;51.456;12.626;2023-04-16T13:18:09;7.40;;;6.70;;
13331;SDS011;6735;51.456;12.626;2023-04-16T13:20:35;7.30;;;6.70;;
13331;SDS011;6735;51.456;12.626;2023-04-16T13:23:00;6.40;;;5.80;;
13331;SDS011;6735;51.456;12.626;2023-04-16T13:25:29;5.70;;;5.30;;
13331;SDS011;6735;51.456;12.626;2023-04-16T13:27:55;5.30;;;4.90;;
13331;SDS011;6735;51.456;12.626;2023-04-16T13:30:20;5.00;;;4.70;;
13331;SDS011;6735;51.456;12.626;2023-04-16T13:32:46;4.90;;;4.60;;
13331;SDS011;6735;51.456;12.626;2023-04-16T13:35:11;5.30;;;5.00;;
13331;SDS011;6735;51.456;12.626;2023-04-16T13:37:37;5.43;;;4.93;;
13331;SDS011;6735;51.456;12.626;2023-04-16T13:40:03;4.40;;;4.10;;
13331;SDS011;6735;51.456;12.626;2023-04-16T13:42:28;4.93;;;4.63;;
13331;SDS011;6735;51.456;12.626;2023-04-16T13:44:54;4.77;;;4.47;;
13331;SDS011;6735;51.456;12.626;2023-04-16T13:47:21;5.23;;;4.83;;
13331;SDS011;6735;51.456;12.626;2023-04-16T13:49:46;5.90;;;5.40;;
13331;SDS011;6735;51.456;12.626;2023-04-16T13:52:12;6.50;;;6.00;;
13331;SDS011;6735;51.456;12.626;2023-04-16T13:54:37;6.40;;;5.90;;
13331;SDS011;6735;51.456;12.626;2023-04-16T13:57:04;6.80;;;6.30;;
13331;SDS011;6735;51.456;12.626;2023-04-16T13:59:30;6.60;;;6.10;;
13331;SDS011;6735;51.456;12.626;2023-04-16T14:01:56;6.67;;;6.07;;
13331;SDS011;6735;51.456;12.626;2023-04-16T14:04:22;6.30;;;5.87;;
13331;SDS011;6735;51.456;12.626;2023-04-16T14:06:48;7.27;;;6.67;;
13331;SDS011;6735;51.456;12.626;2023-04-16T14:09:23;7.20;;;6.50;;
13331;SDS011;6735;51.456;12.626;2023-04-16T14:11:48;7.60;;;7.00;;
13331;SDS011;6735;51.456;12.626;2023-04-16T14:14:14;7.37;;;6.67;;
13331;SDS011;6735;51.456;12.626;2023-04-16T14:16:40;7.10;;;6.50;;
13331;SDS011;6735;51.456;12.626;2023-04-16T14:19:05;6.80;;;6.30;;
13331;SDS011;6735;51.456;12.626;2023-04-16T14:21:31;7.63;;;7.03;;
13331;SDS011;6735;51.456;12.626;2023-04-16T14:23:56;7.90;;;7.30;;
13331;SDS011;6735;51.456;12.626;2023-04-16T14:26:22;8.13;;;7.47;;
13331;SDS011;6735;51.456;12.626;2023-04-16T14:28:49;8.67;;;7.97;;
13331;SDS011;6735;51.456;12.626;2023-04-16T14:31:15;8.20;;;7.53;;
13331;SDS011;6735;51.456;12.626;2023-04-16T14:33:42;8.63;;;7.93;;
13331;SDS011;6735;51.456;12.626;2023-04-16T14:36:08;7.90;;;7.30;;
13331;SDS011;6735;51.456;12.626;2023-04-16T14:38:34;7.50;;;6.90;;
13331;SDS011;6735;51.456;12.626;2023-04-16T14:40:59;8.23;;;7.63;;